Terminal Aerodrome Forecast
Issued by NWS Cleveland, OH

Home | Current Version | Previous Version | Graphics & Text | Print | Product List | Glossary On
Versions: 1 2 3 4 5 6 7 8 9 10 11 12 13 14 15 16 17 18 19
000
FTUS41 KCLE 201100
TAFTOL
TAF
KTOL 201130Z 2012/2112 20008KT 6SM -SHRA BKN060 OVC100
     FM201500 23012G18KT P6SM VCSH BKN035 OVC060
     FM202200 27009KT P6SM VCSH OVC030
     FM210500 30008KT 6SM BR OVC018=

USA.gov is the U.S. government's official web portal to all federal, state and local government web resources and services.